Time;durP1;ratioP1;P1;durP2;ratioP2;P2;SDS_P1;SDS_P2;PMS_P1;PMS_P2;Temp;Humidity;BMP_temperature;BMP_pressure;BME280_temperature;BME280_humidity;BME280_pressure;Samples;Min_cycle;Max_cycle;Signal;HPM_P1;HPM_P2
2022/03/13 00:00:19;;;;;;;15.47;10.43;;;10.70;1.00;;;;;;5078942;28;20516;-79
2022/03/13 00:02:47;;;;;;;17.07;10.17;;;10.60;1.00;;;;;;5055303;28;20815;-79
2022/03/13 00:05:16;;;;;;;17.43;10.00;;;10.60;1.00;;;;;;5083444;28;20445;-79
2022/03/13 00:07:47;;;;;;;19.10;11.67;;;10.50;1.00;;;;;;5081457;28;20470;-80
2022/03/13 00:10:17;;;;;;;11.50;9.73;;;10.50;1.00;;;;;;5078132;28;20545;-79
2022/03/13 00:12:47;;;;;;;14.10;10.77;;;10.70;1.00;;;;;;5084847;28;20464;-79
2022/03/13 00:15:16;;;;;;;16.37;10.90;;;10.30;1.00;;;;;;5082613;28;20835;-79
2022/03/13 00:17:44;;;;;;;15.97;10.37;;;10.50;1.00;;;;;;5075815;28;20551;-80
2022/03/13 00:20:12;;;;;;;16.07;10.13;;;10.30;1.00;;;;;;5078432;28;20465;-79
2022/03/13 00:22:41;;;;;;;21.10;11.17;;;10.40;1.00;;;;;;5085190;28;20465;-79
2022/03/13 00:25:10;;;;;;;17.33;10.90;;;10.40;1.00;;;;;;5087688;28;20451;-79
2022/03/13 00:27:40;;;;;;;16.07;10.27;;;10.40;1.00;;;;;;5077362;28;21314;-79
2022/03/13 00:30:11;;;;;;;16.13;10.83;;;10.50;1.00;;;;;;5085449;28;20501;-79
2022/03/13 00:32:39;;;;;;;13.87;11.77;;;10.40;1.00;;;;;;5085467;28;20450;-79
2022/03/13 00:35:08;;;;;;;19.77;10.93;;;10.70;1.00;;;;;;5085700;28;20472;-79
2022/03/13 00:37:36;;;;;;;20.00;11.40;;;10.30;1.00;;;;;;5078841;28;20472;-79
2022/03/13 00:40:05;;;;;;;14.30;10.37;;;10.30;1.00;;;;;;5081437;28;20455;-77
2022/03/13 00:42:34;;;;;;;16.83;10.57;;;10.30;1.00;;;;;;5077050;28;20455;-78
2022/03/13 00:45:04;;;;;;;13.47;9.47;;;10.30;1.00;;;;;;5095904;28;20486;-77
2022/03/13 00:47:32;;;;;;;16.43;10.60;;;10.30;1.00;;;;;;5082751;28;20518;-79
2022/03/13 00:50:00;;;;;;;13.53;10.47;;;10.30;1.00;;;;;;5082820;28;21032;-80
2022/03/13 00:52:28;;;;;;;13.87;10.80;;;10.30;1.00;;;;;;5081206;28;20465;-79
2022/03/13 00:54:56;;;;;;;15.20;11.10;;;10.60;1.00;;;;;;5079255;28;20511;-79
2022/03/13 00:57:24;;;;;;;16.50;11.07;;;10.20;1.00;;;;;;5085424;28;20511;-80
2022/03/13 00:59:53;;;;;;;16.17;10.10;;;10.20;1.00;;;;;;5082735;28;20451;-80
2022/03/13 01:02:22;;;;;;;14.43;10.53;;;10.20;1.00;;;;;;5082048;28;20458;-80
2022/03/13 01:04:51;;;;;;;23.13;10.60;;;10.20;1.00;;;;;;5078915;28;20860;-79
2022/03/13 01:07:19;;;;;;;18.60;12.07;;;10.40;1.00;;;;;;5079500;28;20528;-80
2022/03/13 01:09:48;;;;;;;14.13;11.20;;;10.20;1.00;;;;;;5082058;28;20478;-79
2022/03/13 01:12:16;;;;;;;17.77;10.60;;;10.10;1.00;;;;;;5082184;28;20462;-79
2022/03/13 01:14:44;;;;;;;14.00;9.87;;;10.00;1.00;;;;;;5077859;28;20459;-80
2022/03/13 01:17:12;;;;;;;15.43;10.50;;;10.00;1.00;;;;;;5078990;28;21069;-80
2022/03/13 01:19:42;;;;;;;22.20;11.20;;;9.90;1.00;;;;;;5078209;28;20551;-80
2022/03/13 01:22:14;;;;;;;16.27;10.90;;;9.90;1.00;;;;;;5074237;28;20490;-80
2022/03/13 01:24:45;;;;;;;18.40;12.20;;;9.90;1.00;;;;;;5078950;28;20461;-80
2022/03/13 01:27:15;;;;;;;16.23;10.30;;;9.90;1.00;;;;;;5080035;28;20501;-79
2022/03/13 01:29:45;;;;;;;15.53;9.93;;;9.70;1.00;;;;;;5078671;28;20560;-80
2022/03/13 01:32:14;;;;;;;15.47;10.97;;;9.70;1.00;;;;;;5082141;28;20448;-79
2022/03/13 01:34:50;;;;;;;15.07;10.40;;;10.00;1.00;;;;;;5076549;28;20467;-79
2022/03/13 01:37:30;;;;;;;18.50;10.70;;;9.80;1.00;;;;;;5083200;28;20950;-78
2022/03/13 01:39:59;;;;;;;16.43;11.80;;;9.70;1.00;;;;;;5083297;28;20813;-79
2022/03/13 01:42:27;;;;;;;15.77;11.57;;;9.50;1.00;;;;;;5080986;28;20480;-78
2022/03/13 01:44:56;;;;;;;16.00;10.93;;;9.40;1.00;;;;;;5080887;28;20457;-78
2022/03/13 01:47:24;;;;;;;17.90;11.57;;;9.40;1.00;;;;;;5081790;28;20483;-78
2022/03/13 01:49:54;;;;;;;20.27;10.60;;;9.80;1.00;;;;;;5085851;28;20481;-78
2022/03/13 01:52:26;;;;;;;14.57;10.07;;;9.50;1.00;;;;;;5082620;28;20434;-78
2022/03/13 01:54:56;;;;;;;17.37;10.77;;;9.50;1.00;;;;;;5084423;28;20526;-77
2022/03/13 01:57:25;;;;;;;15.43;10.37;;;9.50;1.00;;;;;;5086219;28;20449;-78
2022/03/13 01:59:55;;;;;;;16.73;11.53;;;9.40;1.00;;;;;;5081297;28;21086;-78
2022/03/13 02:02:25;;;;;;;14.37;10.17;;;9.30;1.00;;;;;;5084783;28;20482;-79
2022/03/13 02:04:56;;;;;;;14.63;10.43;;;9.20;1.00;;;;;;5085098;28;20444;-79
2022/03/13 02:07:28;;;;;;;18.43;10.77;;;9.40;1.00;;;;;;5082878;28;20537;-79
2022/03/13 02:09:56;;;;;;;15.27;10.20;;;9.50;1.00;;;;;;5083307;28;20466;-80
2022/03/13 02:12:26;;;;;;;15.87;10.77;;;9.30;1.00;;;;;;5085462;28;20445;-79
2022/03/13 02:14:54;;;;;;;12.27;10.77;;;9.30;1.00;;;;;;5081054;28;20881;-78
2022/03/13 02:17:26;;;;;;;16.23;10.17;;;9.30;1.00;;;;;;5084152;28;20460;-79
2022/03/13 02:19:56;;;;;;;15.07;10.70;;;9.30;1.00;;;;;;5084876;28;20511;-78
2022/03/13 02:22:25;;;;;;;13.63;9.97;;;9.40;1.00;;;;;;5086624;28;20755;-79
2022/03/13 02:24:55;;;;;;;14.20;9.10;;;9.40;1.00;;;;;;5086011;28;20476;-79
2022/03/13 02:27:27;;;;;;;14.00;9.40;;;9.40;1.00;;;;;;5086414;28;20944;-78
2022/03/13 02:29:56;;;;;;;11.50;8.43;;;9.60;1.00;;;;;;5084422;28;20480;-78
2022/03/13 02:32:25;;;;;;;12.20;8.53;;;9.40;1.00;;;;;;5080808;28;20446;-78
2022/03/13 02:34:55;;;;;;;15.33;9.93;;;9.50;1.00;;;;;;5080758;28;20553;-79
2022/03/13 02:37:40;;;;;;;15.50;9.53;;;9.50;1.00;;;;;;5087987;28;20536;-78
2022/03/13 02:40:20;;;;;;;15.63;10.37;;;9.20;1.00;;;;;;5078951;28;20446;-78
2022/03/13 02:42:48;;;;;;;13.13;9.60;;;9.20;1.00;;;;;;5082277;28;20454;-78
2022/03/13 02:45:29;;;;;;;18.10;8.60;;;9.30;1.00;;;;;;5081081;28;20933;-78
2022/03/13 02:47:57;;;;;;;15.23;9.50;;;9.30;1.00;;;;;;5079678;28;20896;-79
2022/03/13 02:50:25;;;;;;;12.83;9.33;;;9.40;1.00;;;;;;5083615;28;20583;-79
2022/03/13 02:52:54;;;;;;;15.57;9.20;;;9.30;1.00;;;;;;5079599;28;20461;-79
2022/03/13 02:55:24;;;;;;;15.33;9.90;;;9.20;1.00;;;;;;5082455;28;20457;-78
2022/03/13 02:57:52;;;;;;;11.30;8.40;;;9.20;1.00;;;;;;5083459;28;20485;-77
2022/03/13 03:00:23;;;;;;;14.43;9.33;;;9.20;1.00;;;;;;5080459;28;20539;-77
2022/03/13 03:02:51;;;;;;;13.37;9.80;;;9.20;1.00;;;;;;5082604;28;20880;-78
2022/03/13 03:05:19;;;;;;;12.90;8.13;;;9.20;1.00;;;;;;5083647;28;20543;-77
2022/03/13 03:07:47;;;;;;;12.73;8.30;;;9.20;1.00;;;;;;5083334;28;20534;-77
2022/03/13 03:10:17;;;;;;;13.30;9.57;;;9.20;1.00;;;;;;5080651;28;20488;-78
2022/03/13 03:12:47;;;;;;;12.93;9.33;;;9.10;1.00;;;;;;5082436;28;20539;-76
2022/03/13 03:15:19;;;;;;;15.47;9.40;;;9.20;1.00;;;;;;5081247;28;20869;-78
2022/03/13 03:17:47;;;;;;;13.87;9.97;;;9.20;1.00;;;;;;5083330;28;20483;-78
2022/03/13 03:20:16;;;;;;;15.00;9.90;;;9.20;1.00;;;;;;5077782;28;20585;-78
2022/03/13 03:22:44;;;;;;;14.83;9.40;;;9.20;1.00;;;;;;5078102;28;20462;-79
2022/03/13 03:25:12;;;;;;;12.93;9.77;;;9.20;1.00;;;;;;5072392;28;20678;-79
2022/03/13 03:27:41;;;;;;;11.83;8.90;;;9.10;1.00;;;;;;5083267;28;20471;-79
2022/03/13 03:30:12;;;;;;;17.10;10.80;;;9.10;1.00;;;;;;5081813;28;20847;-79
2022/03/13 03:32:40;;;;;;;14.90;9.20;;;9.10;1.00;;;;;;5079749;28;20455;-79
2022/03/13 03:35:09;;;;;;;12.10;8.87;;;9.10;1.00;;;;;;5079552;28;20460;-79
2022/03/13 03:37:37;;;;;;;15.43;9.97;;;9.00;1.00;;;;;;5084589;28;20476;-79
2022/03/13 03:40:06;;;;;;;15.57;10.40;;;9.00;1.00;;;;;;5082569;28;20487;-78
2022/03/13 03:42:35;;;;;;;10.73;7.83;;;8.90;1.00;;;;;;5086675;28;20451;-79
2022/03/13 03:45:04;;;;;;;12.73;9.70;;;9.00;1.00;;;;;;5083154;28;20449;-79
2022/03/13 03:47:34;;;;;;;14.53;10.10;;;9.00;1.00;;;;;;5080603;28;20476;-79
2022/03/13 03:50:03;;;;;;;14.10;9.03;;;8.90;1.00;;;;;;5082119;28;20477;-78
2022/03/13 03:52:31;;;;;;;13.73;8.83;;;8.80;1.00;;;;;;5081778;28;20921;-79
2022/03/13 03:55:00;;;;;;;14.50;9.83;;;8.90;1.00;;;;;;5078169;28;20501;-79
2022/03/13 03:57:28;;;;;;;11.77;8.37;;;8.90;1.00;;;;;;5082610;28;20446;-79
2022/03/13 03:59:56;;;;;;;11.77;8.50;;;9.10;1.00;;;;;;5078615;28;20464;-79
2022/03/13 04:02:25;;;;;;;13.80;8.77;;;8.80;1.00;;;;;;5082497;28;21029;-79
2022/03/13 04:04:54;;;;;;;12.50;9.90;;;8.70;1.00;;;;;;5082600;28;20453;-79
2022/03/13 04:07:23;;;;;;;13.23;8.80;;;8.70;1.00;;;;;;5083252;28;20457;-78
2022/03/13 04:09:51;;;;;;;11.33;8.00;;;8.70;1.00;;;;;;5083044;28;20471;-79
2022/03/13 04:12:19;;;;;;;13.37;9.10;;;8.60;1.00;;;;;;5080197;28;20456;-79
2022/03/13 04:14:47;;;;;;;14.70;8.90;;;8.60;1.00;;;;;;5081283;28;20459;-79
2022/03/13 04:17:15;;;;;;;13.17;8.60;;;8.50;1.00;;;;;;5085973;28;20524;-79
2022/03/13 04:19:43;;;;;;;13.53;8.53;;;8.80;1.00;;;;;;5087623;28;20471;-79
2022/03/13 04:22:15;;;;;;;12.87;8.73;;;8.60;1.00;;;;;;5088540;28;21041;-79
2022/03/13 04:24:43;;;;;;;14.07;8.50;;;8.70;1.00;;;;;;5077323;28;20455;-79
2022/03/13 04:27:12;;;;;;;14.93;9.77;;;8.70;1.00;;;;;;5084168;28;20534;-78
2022/03/13 04:29:40;;;;;;;13.67;8.80;;;8.70;1.00;;;;;;5085780;28;20468;-79
2022/03/13 04:32:10;;;;;;;15.30;9.33;;;8.60;1.00;;;;;;5079414;28;21072;-79
2022/03/13 04:34:38;;;;;;;18.60;9.17;;;8.60;1.00;;;;;;5077964;28;20459;-80
2022/03/13 04:37:07;;;;;;;13.90;9.30;;;8.60;1.00;;;;;;5080977;28;20541;-79
2022/03/13 04:39:36;;;;;;;13.23;9.73;;;8.60;1.00;;;;;;5083652;28;21006;-80
2022/03/13 04:42:06;;;;;;;13.47;8.30;;;8.60;1.00;;;;;;5082348;28;20449;-79
2022/03/13 04:44:35;;;;;;;14.03;9.67;;;8.70;1.00;;;;;;5079227;28;20464;-80
2022/03/13 04:47:03;;;;;;;14.90;9.90;;;8.60;1.00;;;;;;5080384;28;20458;-79
2022/03/13 04:49:31;;;;;;;13.60;9.57;;;8.60;1.00;;;;;;5074458;28;20484;-78
2022/03/13 04:52:00;;;;;;;16.13;9.80;;;8.60;1.00;;;;;;5082961;28;20502;-79
2022/03/13 04:54:28;;;;;;;12.90;9.10;;;8.60;1.00;;;;;;5079973;28;20460;-79
2022/03/13 04:56:57;;;;;;;12.77;8.70;;;8.60;1.00;;;;;;5083555;28;20460;-79
2022/03/13 04:59:26;;;;;;;13.73;8.63;;;8.60;1.00;;;;;;5081078;28;20556;-80
2022/03/13 05:01:54;;;;;;;14.33;9.30;;;8.70;1.00;;;;;;5081020;28;20530;-80
2022/03/13 05:04:22;;;;;;;15.13;8.60;;;8.50;1.00;;;;;;5080682;28;20810;-78
2022/03/13 05:06:50;;;;;;;15.93;9.33;;;8.50;1.00;;;;;;5083529;28;20450;-78
2022/03/13 05:09:19;;;;;;;12.27;8.57;;;8.50;1.00;;;;;;5081545;28;20459;-78
2022/03/13 05:11:47;;;;;;;14.93;9.70;;;8.40;1.00;;;;;;5081324;28;20534;-79
2022/03/13 05:14:17;;;;;;;12.07;8.23;;;8.40;1.00;;;;;;5079351;28;20464;-79
2022/03/13 05:16:45;;;;;;;15.77;9.47;;;8.40;1.00;;;;;;5080055;28;20464;-80
2022/03/13 05:19:13;;;;;;;13.60;8.60;;;8.40;1.00;;;;;;5083506;28;20534;-80
2022/03/13 05:21:42;;;;;;;12.97;8.43;;;8.40;1.00;;;;;;5080071;28;20456;-80
2022/03/13 05:24:10;;;;;;;10.17;7.60;;;8.40;1.00;;;;;;5079056;28;21223;-78
2022/03/13 05:26:39;;;;;;;17.00;9.43;;;8.40;1.00;;;;;;5085195;28;20457;-79
2022/03/13 05:29:07;;;;;;;15.20;10.37;;;8.50;1.00;;;;;;5083364;28;20558;-78
2022/03/13 05:31:36;;;;;;;16.50;10.73;;;8.50;1.00;;;;;;5083221;28;20562;-79
2022/03/13 05:34:05;;;;;;;14.33;8.93;;;8.70;1.00;;;;;;5084462;28;20448;-79
2022/03/13 05:36:33;;;;;;;17.47;10.30;;;8.40;1.00;;;;;;5080910;28;20454;-79
2022/03/13 05:39:01;;;;;;;12.10;9.30;;;8.40;1.00;;;;;;5081362;28;20491;-79
2022/03/13 05:41:30;;;;;;;14.90;10.40;;;8.60;1.00;;;;;;5086850;28;20471;-79
2022/03/13 05:43:58;;;;;;;12.20;7.63;;;8.40;1.00;;;;;;5086141;28;20446;-79
2022/03/13 05:46:26;;;;;;;13.10;9.53;;;8.40;1.00;;;;;;5084307;28;20820;-78
2022/03/13 05:48:56;;;;;;;15.37;8.90;;;8.50;1.00;;;;;;5085405;28;20503;-79
2022/03/13 05:51:26;;;;;;;14.57;9.57;;;8.30;1.00;;;;;;5082482;28;20506;-79
2022/03/13 05:53:54;;;;;;;13.80;9.53;;;8.30;1.00;;;;;;5080841;28;20447;-80
2022/03/13 05:56:22;;;;;;;12.67;8.17;;;8.10;1.00;;;;;;5080362;28;20451;-79
2022/03/13 05:58:51;;;;;;;10.90;9.60;;;8.20;1.00;;;;;;5085215;28;20482;-79
2022/03/13 06:01:19;;;;;;;12.20;8.60;;;8.30;1.00;;;;;;5087215;28;20443;-79
2022/03/13 06:03:53;;;;;;;12.03;8.80;;;8.30;1.00;;;;;;5085712;28;20809;-78
2022/03/13 06:06:23;;;;;;;16.20;9.77;;;8.30;1.00;;;;;;5084685;28;20454;-80
2022/03/13 06:08:51;;;;;;;16.07;9.60;;;8.20;1.00;;;;;;5082645;28;20801;-78
2022/03/13 06:11:19;;;;;;;17.60;10.30;;;8.20;1.00;;;;;;5085577;28;20471;-78
2022/03/13 06:13:47;;;;;;;14.40;9.60;;;8.40;1.00;;;;;;5084483;28;20473;-79
2022/03/13 06:16:18;;;;;;;14.20;10.67;;;8.10;1.00;;;;;;5085353;28;20489;-79
2022/03/13 06:18:47;;;;;;;19.63;11.33;;;8.10;1.00;;;;;;5077719;28;20462;-80
2022/03/13 06:21:15;;;;;;;12.97;8.77;;;8.20;1.00;;;;;;5081845;28;21243;-79
2022/03/13 06:23:45;;;;;;;11.90;9.30;;;8.30;1.00;;;;;;5077354;28;20535;-79
2022/03/13 06:26:13;;;;;;;17.20;9.33;;;8.30;1.00;;;;;;5086760;28;20430;-79
2022/03/13 06:28:41;;;;;;;15.53;9.60;;;8.30;1.00;;;;;;5090031;28;20471;-78
2022/03/13 06:31:11;;;;;;;11.27;8.87;;;8.30;1.00;;;;;;5082110;28;20459;-78
2022/03/13 06:33:40;;;;;;;14.90;10.30;;;8.20;1.00;;;;;;5085290;28;20451;-79
2022/03/13 06:36:10;;;;;;;12.10;9.57;;;8.10;1.00;;;;;;5082398;28;20504;-78
2022/03/13 06:38:38;;;;;;;13.85;11.40;;;8.10;1.00;;;;;;5078385;28;20444;-78
2022/03/13 06:41:07;;;;;;;16.30;12.87;;;8.30;1.00;;;;;;5083713;28;20203;-78
2022/03/13 06:43:36;;;;;;;14.83;9.83;;;8.70;1.00;;;;;;5089550;28;20452;-78
2022/03/13 06:46:04;;;;;;;15.23;10.77;;;8.70;1.00;;;;;;5089204;28;20450;-82
2022/03/13 06:48:33;;;;;;;13.30;9.10;;;8.80;1.00;;;;;;5079926;28;20700;-79
2022/03/13 06:51:01;;;;;;;14.37;10.80;;;8.90;1.00;;;;;;5082381;28;20837;-77
2022/03/13 06:53:29;;;;;;;14.90;10.20;;;9.00;1.00;;;;;;5085383;28;20476;-77
2022/03/13 06:55:57;;;;;;;17.27;9.43;;;9.10;1.00;;;;;;5083806;28;20452;-80
2022/03/13 06:58:27;;;;;;;13.83;9.50;;;9.20;1.00;;;;;;5090431;28;20834;-81
2022/03/13 07:00:55;;;;;;;12.53;9.53;;;9.30;1.00;;;;;;5092175;28;20448;-78
2022/03/13 07:03:24;;;;;;;14.57;10.20;;;9.20;1.00;;;;;;5090220;28;20443;-81
2022/03/13 07:05:52;;;;;;;16.63;10.07;;;9.40;1.00;;;;;;5078033;28;20514;-80
2022/03/13 07:08:20;;;;;;;17.03;10.67;;;9.60;1.00;;;;;;5087980;28;20488;-81
2022/03/13 07:10:50;;;;;;;15.37;9.50;;;9.40;1.00;;;;;;5080292;28;20540;-79
2022/03/13 07:13:19;;;;;;;12.60;9.30;;;9.50;1.00;;;;;;5088831;28;20487;-80
2022/03/13 07:15:49;;;;;;;16.60;12.10;;;9.50;1.00;;;;;;5087989;28;20802;-79
2022/03/13 07:18:17;;;;;;;17.25;12.18;;;9.50;1.00;;;;;;5086380;28;20443;-79
2022/03/13 07:20:46;;;;;;;13.33;10.33;;;9.50;1.00;;;;;;5079763;28;20888;-81
2022/03/13 07:23:14;;;;;;;18.40;12.43;;;9.90;1.00;;;;;;5083872;28;20467;-79
2022/03/13 07:25:42;;;;;;;13.70;10.23;;;9.70;1.00;;;;;;5082134;28;21008;-79
2022/03/13 07:28:10;;;;;;;20.23;10.60;;;9.70;1.00;;;;;;5081368;28;20484;-80
2022/03/13 07:30:39;;;;;;;15.90;10.63;;;9.80;1.00;;;;;;5083302;28;20445;-80
2022/03/13 07:33:08;;;;;;;18.50;11.07;;;9.90;1.00;;;;;;5080395;28;20531;-80
2022/03/13 07:35:37;;;;;;;18.53;10.80;;;9.90;1.00;;;;;;5080410;28;20445;-80
2022/03/13 07:38:06;;;;;;;14.33;10.80;;;10.00;1.00;;;;;;5080475;28;20474;-80
2022/03/13 07:40:34;;;;;;;16.93;11.20;;;10.00;1.00;;;;;;5071507;28;20484;-80
2022/03/13 07:43:03;;;;;;;16.67;11.80;;;10.20;1.00;;;;;;5080271;28;20816;-80
2022/03/13 07:45:31;;;;;;;12.97;10.30;;;10.40;1.00;;;;;;5080836;28;20462;-79
2022/03/13 07:47:59;;;;;;;16.73;10.73;;;10.60;1.00;;;;;;5082199;28;20493;-80
2022/03/13 07:50:30;;;;;;;16.37;10.87;;;10.70;1.00;;;;;;5082058;28;20449;-79
2022/03/13 07:52:59;;;;;;;17.20;12.70;;;10.90;1.00;;;;;;5080760;28;20469;-79
2022/03/13 07:55:27;;;;;;;17.50;13.40;;;11.00;1.00;;;;;;5078654;28;20453;-80
2022/03/13 07:57:55;;;;;;;17.73;13.03;;;11.10;1.00;;;;;;5082893;28;20481;-79
2022/03/13 08:00:24;;;;;;;13.33;10.00;;;11.20;1.00;;;;;;5085783;28;20450;-78
2022/03/13 08:02:54;;;;;;;14.97;10.67;;;11.20;1.00;;;;;;5078629;28;20540;-79
2022/03/13 08:05:23;;;;;;;18.20;11.30;;;11.40;1.00;;;;;;5079812;28;20457;-80
2022/03/13 08:07:55;;;;;;;14.60;10.77;;;11.50;1.00;;;;;;5082544;28;20478;-79
2022/03/13 08:10:24;;;;;;;13.53;10.50;;;11.70;1.00;;;;;;5087535;28;20463;-79
2022/03/13 08:12:53;;;;;;;15.87;10.70;;;11.90;1.00;;;;;;5082345;28;20488;-79
2022/03/13 08:15:22;;;;;;;18.27;11.27;;;12.10;1.00;;;;;;5081250;28;20454;-79
2022/03/13 08:17:50;;;;;;;14.47;10.23;;;12.20;1.00;;;;;;5082650;28;20461;-80
2022/03/13 08:20:19;;;;;;;15.13;10.50;;;12.40;1.00;;;;;;5087267;28;20543;-79
2022/03/13 08:22:47;;;;;;;16.23;10.70;;;12.60;1.00;;;;;;5086936;28;20804;-79
2022/03/13 08:25:19;;;;;;;18.85;10.88;;;12.70;1.00;;;;;;5087468;28;20436;-78
2022/03/13 08:27:47;;;;;;;14.27;11.40;;;12.90;1.00;;;;;;5076393;28;20588;-80
2022/03/13 08:30:16;;;;;;;17.60;12.30;;;13.10;1.00;;;;;;5078638;28;20452;-80
2022/03/13 08:32:44;;;;;;;19.50;12.93;;;13.40;1.00;;;;;;5078256;28;20506;-78
2022/03/13 08:35:13;;;;;;;20.10;12.03;;;13.50;1.00;;;;;;5080198;28;20787;-77
2022/03/13 08:37:41;;;;;;;18.93;12.47;;;13.70;1.00;;;;;;5081315;28;20484;-79
2022/03/13 08:40:11;;;;;;;16.07;11.10;;;13.90;1.00;;;;;;5081797;28;20510;-78
2022/03/13 08:42:41;;;;;;;13.50;10.20;;;14.10;1.00;;;;;;5083264;28;20471;-79
2022/03/13 08:45:11;;;;;;;15.97;11.03;;;14.10;1.00;;;;;;5086744;28;20451;-80
2022/03/13 08:47:39;;;;;;;14.63;10.20;;;14.20;1.00;;;;;;5085832;28;20553;-77
2022/03/13 08:50:08;;;;;;;16.13;10.77;;;14.40;1.00;;;;;;5081342;28;20444;-76
2022/03/13 08:52:37;;;;;;;16.23;11.73;;;14.40;1.00;;;;;;5084914;28;20449;-78
2022/03/13 08:55:08;;;;;;;17.03;10.63;;;14.60;1.00;;;;;;5086086;28;20456;-78
2022/03/13 08:57:36;;;;;;;16.13;10.50;;;14.60;1.00;;;;;;5079940;28;20469;-78
2022/03/13 09:00:08;;;;;;;13.10;9.60;;;14.80;1.00;;;;;;5081249;28;20469;-78
2022/03/13 09:02:36;;;;;;;15.30;10.53;;;15.00;1.00;;;;;;5087383;28;20464;-79
2022/03/13 09:05:05;;;;;;;16.73;11.20;;;15.00;1.00;;;;;;5089107;28;20460;-78
2022/03/13 09:07:35;;;;;;;15.93;11.17;;;15.10;1.00;;;;;;5089063;28;20453;-78
2022/03/13 09:10:05;;;;;;;18.50;13.23;;;15.30;1.00;;;;;;5080816;28;20447;-79
2022/03/13 09:12:33;;;;;;;15.60;11.20;;;15.40;1.00;;;;;;5087880;28;20451;-77
2022/03/13 09:15:01;;;;;;;13.80;11.10;;;15.60;1.00;;;;;;5091576;28;20465;-78
2022/03/13 09:17:31;;;;;;;16.50;11.10;;;15.80;1.00;;;;;;5088386;28;20518;-80
2022/03/13 09:19:59;;;;;;;16.23;10.83;;;15.80;1.00;;;;;;5090537;28;20470;-78
2022/03/13 09:22:29;;;;;;;11.87;10.17;;;15.90;1.00;;;;;;5089615;28;20983;-79
2022/03/13 09:24:58;;;;;;;15.83;10.70;;;16.00;1.00;;;;;;5088105;28;20451;-79
2022/03/13 09:27:26;;;;;;;20.50;11.00;;;16.00;1.00;;;;;;5076972;28;20809;-77
2022/03/13 09:29:57;;;;;;;11.83;9.43;;;16.20;1.00;;;;;;5089814;28;21027;-78
2022/03/13 09:32:26;;;;;;;17.07;11.50;;;16.50;1.00;;;;;;5088812;28;20447;-77
2022/03/13 09:34:55;;;;;;;15.47;10.73;;;16.60;1.00;;;;;;5088549;28;20529;-78
2022/03/13 09:37:24;;;;;;;14.37;10.33;;;16.70;1.00;;;;;;5089373;28;20452;-79
2022/03/13 09:40:13;;;;;;;15.37;11.60;;;16.90;1.00;;;;;;5086669;28;21093;-77
2022/03/13 09:42:42;;;;;;;16.10;11.53;;;16.90;1.00;;;;;;5086943;28;20465;-78
2022/03/13 09:45:11;;;;;;;15.73;10.90;;;17.00;1.00;;;;;;5088003;28;20534;-77
2022/03/13 09:47:39;;;;;;;13.53;10.13;;;17.10;1.00;;;;;;5089549;28;20618;-78
2022/03/13 09:50:12;;;;;;;13.90;10.80;;;17.20;1.00;;;;;;5090532;28;20457;-78
2022/03/13 09:52:41;;;;;;;15.73;10.73;;;17.20;1.00;;;;;;5089022;28;20529;-80
2022/03/13 09:55:10;;;;;;;14.27;10.17;;;17.40;1.00;;;;;;5086926;28;20482;-78
2022/03/13 09:57:41;;;;;;;16.03;9.77;;;17.60;1.00;;;;;;5087792;28;21028;-79
2022/03/13 10:00:12;;;;;;;17.07;10.83;;;17.80;1.00;;;;;;5086618;28;20827;-79
2022/03/13 10:02:42;;;;;;;20.57;12.50;;;18.00;1.00;;;;;;5088201;28;20507;-78
2022/03/13 10:05:14;;;;;;;17.60;11.93;;;18.10;1.00;;;;;;5087745;28;20552;-78
2022/03/13 10:07:53;;;;;;;15.13;11.40;;;18.20;1.00;;;;;;5085925;28;20474;-78
2022/03/13 10:10:25;;;;;;;19.40;12.60;;;18.30;1.00;;;;;;5086682;28;21043;-79
2022/03/13 10:12:53;;;;;;;13.63;11.20;;;18.20;1.00;;;;;;5080749;28;20507;-78
2022/03/13 10:15:22;;;;;;;14.73;11.00;;;18.20;1.00;;;;;;5090114;28;21281;-78
2022/03/13 10:17:50;;;;;;;16.27;11.90;;;18.30;1.00;;;;;;5088925;28;20480;-78
2022/03/13 10:20:23;;;;;;;18.63;11.43;;;18.30;1.00;;;;;;5087006;28;20457;-79
2022/03/13 10:23:03;;;;;;;16.03;11.63;;;18.30;1.00;;;;;;5087488;28;20544;-77
2022/03/13 10:25:32;;;;;;;16.43;10.53;;;18.40;1.00;;;;;;5087036;28;20498;-78
2022/03/13 10:28:14;;;;;;;15.57;11.00;;;18.20;1.00;;;;;;5084854;28;21089;-78
2022/03/13 10:30:44;;;;;;;14.87;10.83;;;18.30;1.00;;;;;;5087299;28;20458;-79
2022/03/13 10:33:12;;;;;;;14.00;10.40;;;18.50;1.00;;;;;;5086530;28;20460;-78
2022/03/13 10:35:42;;;;;;;17.00;10.73;;;18.70;1.00;;;;;;5089059;28;20527;-78
2022/03/13 10:38:18;;;;;;;18.03;12.67;;;19.00;1.00;;;;;;5088198;28;20481;-79
2022/03/13 10:40:51;;;;;;;14.70;10.40;;;19.00;1.00;;;;;;5087026;28;20450;-79
2022/03/13 10:43:26;;;;;;;17.37;10.90;;;19.00;1.00;;;;;;5080265;28;20457;-77
2022/03/13 10:45:55;;;;;;;17.10;12.30;;;19.40;1.00;;;;;;5080230;28;20465;-79
2022/03/13 10:48:26;;;;;;;18.17;12.98;;;19.60;1.00;;;;;;5078736;28;20512;-78
2022/03/13 10:50:57;;;;;;;18.30;12.60;;;20.00;1.00;;;;;;5082670;28;20190;-78
2022/03/13 10:53:27;;;;;;;16.70;12.23;;;20.00;1.00;;;;;;5082202;28;20452;-79
2022/03/13 10:56:07;;;;;;;15.13;11.47;;;19.90;1.00;;;;;;5088646;28;20457;-78
2022/03/13 10:58:37;;;;;;;17.97;12.60;;;20.00;1.00;;;;;;5077364;28;20476;-79
2022/03/13 11:01:09;;;;;;;15.40;11.83;;;19.90;1.00;;;;;;5087267;28;20473;-80
2022/03/13 11:03:48;;;;;;;20.83;13.57;;;20.40;1.00;;;;;;5085043;28;20483;-79
2022/03/13 11:06:18;;;;;;;15.97;13.13;;;20.50;1.30;;;;;;5081972;28;20536;-78
2022/03/13 11:08:50;;;;;;;18.17;12.53;;;20.70;4.20;;;;;;5083681;28;20478;-79
2022/03/13 11:11:19;;;;;;;18.63;12.80;;;21.30;8.20;;;;;;5084691;28;20576;-80
2022/03/13 11:13:52;;;;;;;17.87;13.47;;;21.30;8.20;;;;;;5081206;28;20867;-79
2022/03/13 11:16:25;;;;;;;14.73;11.90;;;21.40;7.50;;;;;;5081463;28;20461;-78
2022/03/13 11:18:55;;;;;;;19.53;13.10;;;21.70;10.20;;;;;;5090595;28;20534;-80
2022/03/13 11:21:27;;;;;;;16.52;13.80;;;21.70;9.80;;;;;;5078584;28;20450;-80
2022/03/13 11:23:55;;;;;;;17.77;13.93;;;22.50;16.10;;;;;;5084528;28;20268;-79
2022/03/13 11:26:30;;;;;;;15.43;13.17;;;22.30;15.50;;;;;;5084241;28;20532;-80
2022/03/13 11:29:00;;;;;;;17.87;13.50;;;22.20;13.70;;;;;;5082889;28;20473;-77
2022/03/13 11:31:30;;;;;;;18.52;14.48;;;21.90;10.90;;;;;;5085719;28;20442;-79
2022/03/13 11:34:16;;;;;;;17.07;13.17;;;22.20;13.30;;;;;;5080473;28;20204;-78
2022/03/13 11:36:46;;;;;;;19.50;13.97;;;21.80;9.60;;;;;;5078418;28;21407;-78
2022/03/13 11:39:27;;;;;;;18.47;12.83;;;21.50;7.40;;;;;;5075781;28;21032;-78
2022/03/13 11:41:56;;;;;;;20.10;14.67;;;21.20;3.70;;;;;;5081846;28;20995;-78
2022/03/13 11:44:40;;;;;;;20.67;15.90;;;20.80;2.10;;;;;;5080624;28;20453;-77
2022/03/13 11:47:35;;;;;;;18.83;14.00;;;20.50;1.00;;;;;;5083436;28;20461;-77
2022/03/13 11:50:04;;;;;;;14.70;11.00;;;20.20;1.00;;;;;;5061893;28;20965;-78
2022/03/13 11:52:33;;;;;;;18.70;13.63;;;20.00;1.00;;;;;;5084349;28;20460;-78
2022/03/13 11:55:03;;;;;;;19.80;13.00;;;20.00;1.00;;;;;;5084316;28;20486;-79
2022/03/13 11:57:45;;;;;;;14.93;11.30;;;19.90;1.00;;;;;;5081169;28;21290;-79
2022/03/13 12:00:32;;;;;;;18.10;13.52;;;20.00;6.00;;;;;;5068910;28;20440;-78
2022/03/13 12:03:14;;;;;;;16.13;11.90;;;20.10;1.00;;;;;;5080872;28;20210;-78
2022/03/13 12:05:50;;;;;;;19.73;13.03;;;19.90;1.00;;;;;;5082803;28;20511;-77
2022/03/13 12:08:23;;;;;;;17.07;11.20;;;19.80;1.00;;;;;;5082264;28;20466;-78
2022/03/13 12:10:52;;;;;;;16.10;11.27;;;19.70;1.00;;;;;;5085509;28;20432;-78
2022/03/13 12:13:22;;;;;;;15.00;11.03;;;19.80;1.00;;;;;;5080626;28;20200;-79
2022/03/13 12:15:50;;;;;;;15.67;10.27;;;19.90;1.00;;;;;;5078078;28;20561;-78
2022/03/13 12:18:23;;;;;;;14.13;9.27;;;19.90;1.00;;;;;;5079020;28;20992;-78
2022/03/13 12:20:52;;;;;;;16.43;10.53;;;20.00;1.00;;;;;;5077265;28;20495;-81
2022/03/13 12:23:33;;;;;;;17.43;11.50;;;20.10;1.00;;;;;;5085938;28;20553;-78
2022/03/13 12:26:16;;;;;;;18.43;11.50;;;20.10;1.00;;;;;;5084733;28;20446;-78
2022/03/13 12:28:45;;;;;;;16.47;11.80;;;19.90;1.00;;;;;;5072611;28;20473;-79
2022/03/13 12:31:14;;;;;;;17.40;11.47;;;19.80;1.00;;;;;;5078782;28;20453;-78
2022/03/13 12:33:46;;;;;;;23.50;12.37;;;19.60;1.00;;;;;;5078718;28;20995;-79
2022/03/13 12:36:15;;;;;;;21.77;12.30;;;19.40;1.00;;;;;;5080190;28;20481;-79
2022/03/13 12:38:48;;;;;;;22.17;12.00;;;19.30;1.00;;;;;;5081951;28;21321;-80
2022/03/13 12:41:16;;;;;;;15.90;11.30;;;19.30;1.00;;;;;;5082226;28;20960;-79
2022/03/13 12:43:50;;;;;;;17.10;11.43;;;19.10;1.00;;;;;;5082322;28;20458;-78
2022/03/13 12:46:21;;;;;;;16.60;10.90;;;19.20;1.00;;;;;;5078981;28;20967;-78
2022/03/13 12:48:55;;;;;;;19.93;12.03;;;19.30;1.00;;;;;;5079425;28;20489;-79
2022/03/13 12:51:49;;;;;;;17.43;11.90;;;19.20;1.00;;;;;;5087632;28;20861;-79
2022/03/13 12:54:25;;;;;;;17.50;13.27;;;19.20;1.00;;;;;;5062108;28;20817;-77
2022/03/13 12:56:55;;;;;;;16.90;12.07;;;19.40;1.00;;;;;;5083249;28;20307;-78
2022/03/13 12:59:28;;;;;;;18.20;11.80;;;19.40;1.00;;;;;;5082770;28;20549;-79